Share

Makassar, Indonesia

Hasanuddin (WAAA) Elev 46 ft | 5.06 °S, 119.55 °E | Change Station

Current weather conditions updated 22 minutes ago

Scattered Clouds
Scattered Clouds
88 °F
Feels Like 98 °F
N
5
Wind Variable Wind from Variable
Sunrise 6:01 AM
Sunset 6:01 PM
Moon Waning Gibbous

Today is forecast to be nearly the same temperature as yesterday. Showers and thunderstorms.

Pressure 29.86 in
Visibility 6.2 miles
Clouds Scattered Clouds 1900 ft
Heat Index 98 °F
Dew Point 75 °F
Humidity 66%
Rainfall 0.00 in
Snow Depth Not available.
UV 11 out of 16
Pollen Not available.
Air Quality Not available.
Flu Activity Not available.
METAR WAAA 170230Z VRB04KT 9999 SCT019 31/24 Q1011

More Conditions Fewer Conditions

Pressure 29.86 in
Visibility 6.2 miles
Clouds Scattered Clouds 1900 ft
Heat Index 98 °F
Dew Point 75 °F
Humidity 66%
Rainfall 0.00 in
Snow Depth Not available.
UV 11 out of 16
Pollen Not available.
Air Quality Not available.
Flu Activity Not available.
METAR WAAA 170230Z VRB04KT 9999 SCT019 31/24 Q1011

More Conditions Fewer Conditions

10-Day Forecast

Almanac

Astronomy

Apr. 17, 2014 Rise Set
Actual Time 6:01 AM CIT 6:01 PM CIT
Civil Twilight 5:40 AM CIT 6:22 PM CIT
Nautical Twilight 5:16 AM CIT 6:46 PM CIT
Astronomical Twilight 4:51 AM CIT 7:10 PM CIT
Moon 7:44 PM CIT 7:28 AM CIT
Length of Visible Light 12h 41m
Length of Day
11h 59m
Tomorrow will be 0m 14s shorter.
Waning Gibbous, 96% of the Moon is Illuminated
Apr 16
Waning Gibbous
Apr 22
Last Quarter
Apr 29
New
May 6
First Quarter
May 14
Full

Yesterday's Extremes

Country Highs Country Lows

Community

  • symphony in blue....
    symphony in blue....
  • Dawn Surprise
    Dawn Surprise
  • Yucca delight
    Yucca delight
  • Sunset inside of the Ocean
    Sunset inside of the Ocean
  • Lunar eclipse 15 April 2014
    Lunar eclipse 15 April 2014

WunderPhotos

Upload Photos

1,701,825 photos uploaded!

WunderBlogs® & News

Nearby

Snow Depth

Not available.

Coastal Water Temperatures

Place Temperature
No Stations Reporting

Earthquake Activity

City Distance Mag. Time & Date
No recent earthquake activity has been reported nearby.
Minimum magnitude displayed is 2.5.

Nearby Weather Stations

There are no personal weather stations in this area.

What do you think?

We're not finished. Please let us know what you like, what you don't like, and what you are still missing.